Observation data for Tulia on 02/13/2018      Previous  Date  Next       Current Mesonet Observations  Soil Data  Daily Summary Page  Observations in Plain Language
KTIS 130605Z 10007KT M06/M12 A3025 RMK A01 T10581117  RH  064%=      5-min Rain = 0
KTIS 130610Z 10007KT M06/M12 A3025 RMK A01 T10571117  RH  063%=      5-min Rain = 0
KTIS 130615Z 11007KT M05/M11 A3025 RMK A01 T10521111  RH  064%=      5-min Rain = 0
KTIS 130620Z 11006KT M05/M11 A3026 RMK A01 T10481109  RH  063%=      5-min Rain = 0
KTIS 130625Z 10004KT M05/M11 A3026 RMK A01 T10491110  RH  063%=      5-min Rain = 0
KTIS 130630Z 10004KT M05/M11 A3026 RMK A01 T10521111  RH  064%=      5-min Rain = 0
KTIS 130635Z 11004KT M05/M12 A3026 RMK A01 T10541116  RH  063%=      5-min Rain = 0
KTIS 130640Z 12005KT M06/M11 A3026 RMK A01 T10551111  RH  066%=      5-min Rain = 0
KTIS 130645Z 12007KT M06/M11 A3026 RMK A01 T10571111  RH  067%=      5-min Rain = 0
KTIS 130650Z 11006KT M06/M11 A3026 RMK A01 T10601112  RH  068%=      5-min Rain = 0
KTIS 130655Z 10005KT M06/M11 A3026 RMK A01 T10611108  RH  070%=      5-min Rain = 0
KTIS 130700Z 11004KT M06/M11 A3025 RMK A01 T10601107  RH  071%=      5-min Rain = 0
KTIS 130705Z 11004KT M06/M11 A3025 RMK A01 T10611106  RH  071%=      5-min Rain = 0
KTIS 130710Z 11004KT M06/M11 A3025 RMK A01 T10601105  RH  071%=      5-min Rain = 0
KTIS 130715Z 11003KT M06/M11 A3025 RMK A01 T10621109  RH  070%=      5-min Rain = 0
KTIS 130720Z 10003KT M06/M11 A3025 RMK A01 T10641109  RH  071%=      5-min Rain = 0
KTIS 130725Z 09003KT M07/M11 A3025 RMK A01 T10651113  RH  070%=      5-min Rain = 0
KTIS 130730Z 09004KT M06/M12 A3025 RMK A01 T10621116  RH  067%=      5-min Rain = 0
KTIS 130735Z 10005KT M06/M12 A3025 RMK A01 T10601115  RH  066%=      5-min Rain = 0
KTIS 130740Z 10005KT M06/M12 A3025 RMK A01 T10601116  RH  065%=      5-min Rain = 0
KTIS 130745Z 11006KT M06/M11 A3025 RMK A01 T10631114  RH  068%=      5-min Rain = 0
KTIS 130750Z 11007KT M07/M11 A3025 RMK A01 T10651112  RH  070%=      5-min Rain = 0
KTIS 130755Z 10006KT M07/M11 A3025 RMK A01 T10651111  RH  071%=      5-min Rain = 0
KTIS 130800Z 09006KT M07/M11 A3025 RMK A01 T10651111  RH  071%=      5-min Rain = 0
KTIS 130805Z 10007KT M06/M11 A3025 RMK A01 T10631111  RH  070%=      5-min Rain = 0
KTIS 130810Z 11007KT M06/M11 A3024 RMK A01 T10591107  RH  069%=      5-min Rain = 0
KTIS 130815Z 10007KT M06/M11 A3024 RMK A01 T10591108  RH  069%=      5-min Rain = 0
KTIS 130820Z 10007KT M06/M11 A3024 RMK A01 T10591107  RH  070%=      5-min Rain = 0
KTIS 130825Z 10007KT M06/M11 A3024 RMK A01 T10581107  RH  069%=      5-min Rain = 0
KTIS 130830Z 10006KT M06/M11 A3024 RMK A01 T10611108  RH  070%=      5-min Rain = 0
KTIS 130835Z 08005KT M06/M11 A3025 RMK A01 T10631111  RH  070%=      5-min Rain = 0
KTIS 130840Z 08005KT M07/M12 A3025 RMK A01 T10671118  RH  068%=      5-min Rain = 0
KTIS 130845Z 08005KT M07/M12 A3025 RMK A01 T10711122  RH  068%=      5-min Rain = 0
KTIS 130850Z 08005KT M07/M12 A3025 RMK A01 T10721120  RH  070%=      5-min Rain = 0
KTIS 130855Z 09005KT M07/M12 A3025 RMK A01 T10721118  RH  071%=      5-min Rain = 0
KTIS 130900Z 08006KT M07/M12 A3024 RMK A01 T10741117  RH  072%=      5-min Rain = 0
KTIS 130905Z 08005KT M07/M12 A3024 RMK A01 T10741116  RH  073%=      5-min Rain = 0
KTIS 130910Z 09005KT M07/M11 A3024 RMK A01 T10731113  RH  074%=      5-min Rain = 0
KTIS 130915Z 10004KT M07/M11 A3024 RMK A01 T10721112  RH  074%=      5-min Rain = 0
KTIS 130920Z 10004KT M07/M11 A3024 RMK A01 T10711108  RH  076%=      5-min Rain = 0
KTIS 130925Z 10004KT M07/M11 A3025 RMK A01 T10711108  RH  076%=      5-min Rain = 0
KTIS 130930Z 10004KT M07/M11 A3024 RMK A01 T10721108  RH  076%=      5-min Rain = 0
KTIS 130935Z 11004KT M07/M11 A3025 RMK A01 T10711106  RH  077%=      5-min Rain = 0
KTIS 130940Z 11002KT M07/M11 A3025 RMK A01 T10711106  RH  077%=      5-min Rain = 0
KTIS 130945Z 11002KT M07/M11 A3025 RMK A01 T10721109  RH  076%=      5-min Rain = 0
KTIS 130950Z 11003KT M07/M11 A3025 RMK A01 T10721108  RH  077%=      5-min Rain = 0
KTIS 130955Z 11003KT M07/M10 A3025 RMK A01 T10691104  RH  077%=      5-min Rain = 0
KTIS 131000Z 10002KT M07/M11 A3025 RMK A01 T10691107  RH  076%=      5-min Rain = 0
KTIS 131005Z 10001KT M08/M12 A3025 RMK A01 T10771123  RH  071%=      5-min Rain = 0
KTIS 131010Z 11003KT M08/M12 A3025 RMK A01 T10781115  RH  076%=      5-min Rain = 0
KTIS 131015Z 12003KT M08/M11 A3025 RMK A01 T10751108  RH  078%=      5-min Rain = 0
KTIS 131020Z 13004KT M07/M11 A3025 RMK A01 T10721106  RH  078%=      5-min Rain = 0
KTIS 131025Z 13003KT M07/M10 A3025 RMK A01 T10711103  RH  079%=      5-min Rain = 0
KTIS 131030Z 13004KT M07/M10 A3025 RMK A01 T10701102  RH  079%=      5-min Rain = 0
KTIS 131035Z 14005KT M07/M11 A3025 RMK A01 T10691105  RH  077%=      5-min Rain = 0
KTIS 131040Z 14004KT M07/M11 A3025 RMK A01 T10711106  RH  077%=      5-min Rain = 0
KTIS 131045Z 14004KT M07/M10 A3025 RMK A01 T10691103  RH  078%=      5-min Rain = 0
KTIS 131050Z 14003KT M07/M10 A3025 RMK A01 T10681103  RH  077%=      5-min Rain = 0
KTIS 131055Z 14003KT M07/M11 A3025 RMK A01 T10691106  RH  076%=      5-min Rain = 0
KTIS 131100Z 13003KT M07/M11 A3025 RMK A01 T10711106  RH  077%=      5-min Rain = 0
KTIS 131105Z 13003KT M07/M11 A3025 RMK A01 T10711106  RH  077%=      5-min Rain = 0
KTIS 131110Z 12003KT M07/M11 A3025 RMK A01 T10711105  RH  078%=      5-min Rain = 0
KTIS 131115Z 12003KT M07/M10 A3024 RMK A01 T10691102  RH  079%=      5-min Rain = 0
KTIS 131120Z 11003KT M07/M10 A3024 RMK A01 T10681100  RH  079%=      5-min Rain = 0
KTIS 131125Z 11002KT M07/M11 A3024 RMK A01 T10721109  RH  076%=      5-min Rain = 0
KTIS 131130Z 12003KT M08/M11 A3024 RMK A01 T10751112  RH  076%=      5-min Rain = 0
KTIS 131135Z 11002KT M08/M12 A3025 RMK A01 T10791119  RH  074%=      5-min Rain = 0
KTIS 131140Z 08002KT M09/M13 A3024 RMK A01 T10871125  RH  075%=      5-min Rain = 0
KTIS 131145Z 08002KT M09/M12 A3024 RMK A01 T10881119  RH  079%=      5-min Rain = 0
KTIS 131150Z 09002KT M09/M12 A3024 RMK A01 T10881124  RH  077%=      5-min Rain = 0
KTIS 131155Z 11003KT M09/M12 A3025 RMK A01 T10901124  RH  078%=      5-min Rain = 0
KTIS 131200Z 11003KT M09/M12 A3025 RMK A01 T10901122  RH  079%=      5-min Rain = 0
KTIS 131205Z 11003KT M09/M12 A3025 RMK A01 T10881115  RH  081%=      5-min Rain = 0
KTIS 131210Z 12004KT M08/M11 A3025 RMK A01 T10821106  RH  084%=      5-min Rain = 0
KTIS 131215Z 13004KT M07/M09 A3026 RMK A01 T10711091  RH  087%=      5-min Rain = 0
KTIS 131220Z 13004KT M07/M09 A3026 RMK A01 T10661089  RH  085%=      5-min Rain = 0
KTIS 131225Z 13004KT M07/M09 A3026 RMK A01 T10671092  RH  084%=      5-min Rain = 0
KTIS 131230Z 13004KT M07/M09 A3026 RMK A01 T10681093  RH  083%=      5-min Rain = 0
KTIS 131235Z 13005KT M07/M10 A3026 RMK A01 T10691095  RH  083%=      5-min Rain = 0
KTIS 131240Z 12005KT M07/M10 A3026 RMK A01 T10701095  RH  083%=      5-min Rain = 0
KTIS 131245Z 12005KT M07/M09 A3026 RMK A01 T10701093  RH  084%=      5-min Rain = 0
KTIS 131250Z 13005KT M07/M09 A3027 RMK A01 T10701093  RH  085%=      5-min Rain = 0
KTIS 131255Z 13006KT M07/M09 A3027 RMK A01 T10691092  RH  085%=      5-min Rain = 0
KTIS 131300Z 14006KT M07/M09 A3027 RMK A01 T10701093  RH  085%=      5-min Rain = 0
KTIS 131305Z 14007KT M07/M09 A3027 RMK A01 T10681089  RH  086%=      5-min Rain = 0
KTIS 131310Z 14007KT M07/M09 A3027 RMK A01 T10661086  RH  087%=      5-min Rain = 0
KTIS 131315Z 14008KT M07/M09 A3027 RMK A01 T10651085  RH  087%=      5-min Rain = 0
KTIS 131320Z 14009KT M06/M08 A3026 RMK A01 T10641083  RH  087%=      5-min Rain = 0
KTIS 131325Z 15009KT M06/M08 A3027 RMK A01 T10601076  RH  089%=      5-min Rain = 0
KTIS 131330Z 15009KT M06/M07 A3027 RMK A01 T10561074  RH  088%=      5-min Rain = 0
KTIS 131335Z 15008KT M06/M08 A3027 RMK A01 T10571075  RH  088%=      5-min Rain = 0
KTIS 131340Z 15007KT M06/M08 A3027 RMK A01 T10571075  RH  088%=      5-min Rain = 0
KTIS 131345Z 15007KT M06/M07 A3027 RMK A01 T10551072  RH  089%=      5-min Rain = 0
KTIS 131350Z 15008KT M05/M07 A3027 RMK A01 T10521068  RH  090%=      5-min Rain = 0
KTIS 131355Z 15008KT M05/M07 A3027 RMK A01 T10501067  RH  089%=      5-min Rain = 0
KTIS 131400Z 15008KT M05/M07 A3027 RMK A01 T10501068  RH  088%=      5-min Rain = 0
KTIS 131405Z 16007KT M05/M07 A3028 RMK A01 T10501069  RH  087%=      5-min Rain = 0
KTIS 131410Z 16007KT M05/M07 A3028 RMK A01 T10491068  RH  088%=      5-min Rain = 0
KTIS 131415Z 16006KT M05/M07 A3028 RMK A01 T10481068  RH  087%=      5-min Rain = 0
KTIS 131420Z 15005KT M05/M07 A3028 RMK A01 T10471067  RH  087%=      5-min Rain = 0
KTIS 131425Z 15005KT M05/M07 A3028 RMK A01 T10451065  RH  087%=      5-min Rain = 0
KTIS 131430Z 15005KT M04/M06 A3029 RMK A01 T10431064  RH  087%=      5-min Rain = 0
KTIS 131435Z 15005KT M04/M06 A3029 RMK A01 T10411062  RH  086%=      5-min Rain = 0
KTIS 131440Z 16004KT M04/M06 A3029 RMK A01 T10391061  RH  085%=      5-min Rain = 0
KTIS 131445Z 17004KT M04/M06 A3029 RMK A01 T10371061  RH  085%=      5-min Rain = 0
KTIS 131450Z 17005KT M04/M06 A3029 RMK A01 T10351060  RH  084%=      5-min Rain = 0
KTIS 131455Z 16005KT M03/M06 A303 RMK A01 T10331058  RH  084%=      5-min Rain = 0
KTIS 131500Z 16004KT M03/M06 A303 RMK A01 T10301056  RH  084%=      5-min Rain = 0
KTIS 131505Z 15003KT M03/M06 A303 RMK A01 T10281055  RH  083%=      5-min Rain = 0
KTIS 131510Z 15005KT M03/M05 A303 RMK A01 T10251053  RH  082%=      5-min Rain = 0
KTIS 131515Z 15007KT M02/M05 A303 RMK A01 T10231051  RH  082%=      5-min Rain = 0
KTIS 131520Z 16005KT M02/M05 A303 RMK A01 T10201050  RH  081%=      5-min Rain = 0
KTIS 131525Z 16006KT M02/M05 A303 RMK A01 T10171047  RH  081%=      5-min Rain = 0
KTIS 131530Z 16006KT M01/M05 A303 RMK A01 T10141045  RH  080%=      5-min Rain = 0
KTIS 131535Z 18006KT M01/M05 A3031 RMK A01 T10121045  RH  079%=      5-min Rain = 0
KTIS 131540Z 18007KT M01/M05 A3031 RMK A01 T10111045  RH  079%=      5-min Rain = 0
KTIS 131545Z 17006KT M01/M05 A3031 RMK A01 T10101045  RH  078%=      5-min Rain = 0
KTIS 131550Z 18006KT M01/M04 A3032 RMK A01 T10061042  RH  077%=      5-min Rain = 0
KTIS 131555Z 18009KT M00/M04 A3032 RMK A01 T10011042  RH  075%=      5-min Rain = 0
KTIS 131600Z 18007KT 00/M04 A3032 RMK A01 T00021041  RH  074%=      5-min Rain = 0
KTIS 131605Z 19008KT 01/M04 A3032 RMK A01 T00061039  RH  073%=      5-min Rain = 0
KTIS 131610Z 19007KT 01/M04 A3032 RMK A01 T00091038  RH  072%=      5-min Rain = 0
KTIS 131615Z 19008KT 01/M04 A3032 RMK A01 T00111037  RH  071%=      5-min Rain = 0
KTIS 131620Z 19009KT 01/M04 A3032 RMK A01 T00131036  RH  071%=      5-min Rain = 0
KTIS 131625Z 20009KT 02/M04 A3032 RMK A01 T00161035  RH  070%=      5-min Rain = 0
KTIS 131630Z 20009KT 02/M03 A3032 RMK A01 T00181034  RH  069%=      5-min Rain = 0
KTIS 131635Z 20009G14KT 02/M03 A3032 RMK A01 T00201033  RH  069%=      5-min Rain = 0
KTIS 131640Z 20011KT 02/M03 A3031 RMK A01 T00211032  RH  068%=      5-min Rain = 0
KTIS 131645Z 20011KT 02/M03 A3032 RMK A01 T00231032  RH  068%=      5-min Rain = 0
KTIS 131650Z 20012KT 03/M03 A3032 RMK A01 T00251031  RH  067%=      5-min Rain = 0
KTIS 131655Z 20011KT 03/M03 A3031 RMK A01 T00271030  RH  067%=      5-min Rain = 0
KTIS 131700Z 20011KT 03/M03 A3031 RMK A01 T00321028  RH  066%=      5-min Rain = 0
KTIS 131705Z 20010KT 04/M03 A3031 RMK A01 T00361027  RH  064%=      5-min Rain = 0
KTIS 131710Z 19010KT 04/M02 A3032 RMK A01 T00431024  RH  062%=      5-min Rain = 0
KTIS 131715Z 20010KT 05/M02 A3032 RMK A01 T00481023  RH  061%=      5-min Rain = 0
KTIS 131720Z 20012KT 05/M02 A3032 RMK A01 T00511021  RH  060%=      5-min Rain = 0
KTIS 131725Z 21012KT 05/M02 A3032 RMK A01 T00541021  RH  059%=      5-min Rain = 0
KTIS 131730Z 22011KT 06/M02 A3032 RMK A01 T00561021  RH  058%=      5-min Rain = 0
KTIS 131735Z 23009KT 06/M02 A3032 RMK A01 T00561022  RH  058%=      5-min Rain = 0
KTIS 131740Z 21010KT 06/M02 A3031 RMK A01 T00591022  RH  057%=      5-min Rain = 0
KTIS 131745Z 22011KT 06/M02 A3031 RMK A01 T00621021  RH  056%=      5-min Rain = 0
KTIS 131750Z 21010KT 06/M02 A3031 RMK A01 T00631022  RH  055%=      5-min Rain = 0
KTIS 131755Z 23009KT 07/M02 A303 RMK A01 T00651022  RH  054%=      5-min Rain = 0
KTIS 131800Z 23010KT 07/M02 A303 RMK A01 T00691021  RH  053%=      5-min Rain = 0
KTIS 131805Z 23008KT 07/M02 A3029 RMK A01 T00671023  RH  053%=      5-min Rain = 0
KTIS 131810Z 23009KT 07/M02 A3029 RMK A01 T00711021  RH  052%=      5-min Rain = 0
KTIS 131815Z 22009KT 07/M02 A3029 RMK A01 T00721023  RH  051%=      5-min Rain = 0
KTIS 131820Z 23010KT 07/M02 A3029 RMK A01 T00721022  RH  052%=      5-min Rain = 0
KTIS 131825Z 21008KT 07/M02 A3028 RMK A01 T00741022  RH  051%=      5-min Rain = 0
KTIS 131830Z 20008G13KT 08/M02 A3028 RMK A01 T00801021  RH  049%=      5-min Rain = 0
KTIS 131835Z 22009KT 08/M02 A3028 RMK A01 T00811021  RH  049%=      5-min Rain = 0
KTIS 131840Z 21009KT 08/M02 A3028 RMK A01 T00821021  RH  049%=      5-min Rain = 0
KTIS 131845Z 20008KT 08/M02 A3027 RMK A01 T00831021  RH  048%=      5-min Rain = 0
KTIS 131850Z 21009KT 09/M02 A3027 RMK A01 T00861021  RH  048%=      5-min Rain = 0
KTIS 131855Z 21007KT 09/M02 A3026 RMK A01 T00861021  RH  048%=      5-min Rain = 0
KTIS 131900Z 21008KT 09/M02 A3027 RMK A01 T00881021  RH  047%=      5-min Rain = 0
KTIS 131905Z 20008G14KT 09/M02 A3026 RMK A01 T00931019  RH  046%=      5-min Rain = 0
KTIS 131910Z 20010KT 10/M02 A3026 RMK A01 T00971019  RH  045%=      5-min Rain = 0
KTIS 131915Z 20008KT 10/M02 A3025 RMK A01 T00991018  RH  044%=      5-min Rain = 0
KTIS 131920Z 21008G13KT 10/M02 A3025 RMK A01 T00981020  RH  044%=      5-min Rain = 0
KTIS 131925Z 21008KT 10/M02 A3025 RMK A01 T01001019  RH  044%=      5-min Rain = 0
KTIS 131930Z 20008G13KT 10/M02 A3024 RMK A01 T01031019  RH  043%=      5-min Rain = 0
KTIS 131935Z 20009KT 10/M02 A3024 RMK A01 T01031019  RH  043%=      5-min Rain = 0
KTIS 131940Z 22010KT 11/M02 A3024 RMK A01 T01061019  RH  042%=      5-min Rain = 0
KTIS 131945Z 21010G15KT 11/M02 A3025 RMK A01 T01081019  RH  041%=      5-min Rain = 0
KTIS 131950Z 19011KT 11/M02 A3024 RMK A01 T01101019  RH  041%=      5-min Rain = 0
KTIS 131955Z 21010KT 11/M02 A3024 RMK A01 T01101018  RH  041%=      5-min Rain = 0
KTIS 132000Z 20010KT 12/M02 A3024 RMK A01 T01161018  RH  040%=      5-min Rain = 0
KTIS 132005Z 20010G15KT 12/M02 A3024 RMK A01 T01191017  RH  039%=      5-min Rain = 0
KTIS 132010Z 19010KT 12/M02 A3023 RMK A01 T01191018  RH  039%=      5-min Rain = 0
KTIS 132015Z 18010G17KT 12/M02 A3023 RMK A01 T01191018  RH  039%=      5-min Rain = 0
KTIS 132020Z 19009G14KT 12/M02 A3023 RMK A01 T01211018  RH  038%=      5-min Rain = 0
KTIS 132025Z 18011G16KT 12/M02 A3022 RMK A01 T01241019  RH  037%=      5-min Rain = 0
KTIS 132030Z 19011KT 13/M02 A3022 RMK A01 T01261020  RH  037%=      5-min Rain = 0
KTIS 132035Z 18009KT 13/M02 A3022 RMK A01 T01281019  RH  036%=      5-min Rain = 0
KTIS 132040Z 18011KT 13/M02 A3022 RMK A01 T01331021  RH  035%=      5-min Rain = 0
KTIS 132045Z 19012KT 13/M02 A3022 RMK A01 T01331021  RH  035%=      5-min Rain = 0
KTIS 132050Z 18012KT 14/M02 A3022 RMK A01 T01351021  RH  034%=      5-min Rain = 0
KTIS 132055Z 17010KT 14/M02 A3022 RMK A01 T01381021  RH  034%=      5-min Rain = 0
KTIS 132100Z 19011KT 14/M02 A3022 RMK A01 T01381021  RH  034%=      5-min Rain = 0
KTIS 132105Z 19010G16KT 14/M02 A3022 RMK A01 T01441020  RH  033%=      5-min Rain = 0
KTIS 132110Z 18011KT 15/M02 A3022 RMK A01 T01461019  RH  032%=      5-min Rain = 0
KTIS 132115Z 19010KT 15/M02 A3021 RMK A01 T01481019  RH  032%=      5-min Rain = 0
KTIS 132120Z 19012KT 15/M02 A3021 RMK A01 T01481018  RH  032%=      5-min Rain = 0
KTIS 132125Z 19013KT 15/M02 A3022 RMK A01 T01461016  RH  033%=      5-min Rain = 0
KTIS 132130Z 19012G18KT 15/M02 A3022 RMK A01 T01481015  RH  033%=      5-min Rain = 0
KTIS 132135Z 19013KT 15/M02 A3021 RMK A01 T01481015  RH  033%=      5-min Rain = 0
KTIS 132140Z 19013KT 15/M02 A3021 RMK A01 T01471016  RH  033%=      5-min Rain = 0
KTIS 132145Z 18013KT 15/M02 A3021 RMK A01 T01471016  RH  033%=      5-min Rain = 0
KTIS 132150Z 19013KT 15/M02 A3021 RMK A01 T01491015  RH  033%=      5-min Rain = 0
KTIS 132155Z 18013KT 15/M01 A3021 RMK A01 T01511014  RH  033%=      5-min Rain = 0
KTIS 132200Z 19012KT 15/M01 A3021 RMK A01 T01521013  RH  033%=      5-min Rain = 0
KTIS 132205Z 19014KT 15/M01 A3021 RMK A01 T01541013  RH  032%=      5-min Rain = 0
KTIS 132210Z 19013KT 15/M01 A3021 RMK A01 T01531011  RH  033%=      5-min Rain = 0
KTIS 132215Z 19014KT 15/M01 A302 RMK A01 T01541011  RH  033%=      5-min Rain = 0
KTIS 132220Z 20013KT 15/M01 A3021 RMK A01 T01541010  RH  033%=      5-min Rain = 0
KTIS 132225Z 19013G18KT 16/M01 A3021 RMK A01 T01571008  RH  033%=      5-min Rain = 0
KTIS 132230Z 19015KT 16/M01 A3021 RMK A01 T01581008  RH  032%=      5-min Rain = 0
KTIS 132235Z 19013KT 16/M01 A3021 RMK A01 T01591007  RH  032%=      5-min Rain = 0
KTIS 132240Z 19015KT 16/M01 A3021 RMK A01 T01581007  RH  033%=      5-min Rain = 0
KTIS 132245Z 19015KT 16/M01 A3021 RMK A01 T01561008  RH  033%=      5-min Rain = 0
KTIS 132250Z 19014KT 16/M01 A3021 RMK A01 T01571007  RH  033%=      5-min Rain = 0
KTIS 132255Z 19014KT 16/M01 A302 RMK A01 T01571008  RH  033%=      5-min Rain = 0
KTIS 132300Z 19013KT 15/M01 A302 RMK A01 T01541005  RH  034%=      5-min Rain = 0
KTIS 132305Z 19013KT 16/00 A3021 RMK A01 T01560002  RH  036%=      5-min Rain = 0
KTIS 132310Z 18013G19KT 16/01 A3021 RMK A01 T01550007  RH  037%=      5-min Rain = 0
KTIS 132315Z 19014KT 15/01 A302 RMK A01 T01540009  RH  038%=      5-min Rain = 0
KTIS 132320Z 19013KT 15/01 A302 RMK A01 T01520010  RH  039%=      5-min Rain = 0
KTIS 132325Z 18013KT 15/01 A302 RMK A01 T01500012  RH  039%=      5-min Rain = 0
KTIS 132330Z 18014KT 15/01 A302 RMK A01 T01500012  RH  040%=      5-min Rain = 0
KTIS 132335Z 18012KT 15/01 A302 RMK A01 T01490010  RH  039%=      5-min Rain = 0
KTIS 132340Z 18012KT 15/01 A302 RMK A01 T01450012  RH  041%=      5-min Rain = 0
KTIS 132345Z 18013KT 14/01 A302 RMK A01 T01410012  RH  042%=      5-min Rain = 0
KTIS 132350Z 18013KT 14/01 A3021 RMK A01 T01370013  RH  043%=      5-min Rain = 0
KTIS 132355Z 18012KT 14/01 A3021 RMK A01 T01350014  RH  044%=      5-min Rain = 0
KTIS 140000Z 18011KT 13/01 A3021 RMK A01 T01320014  RH  045%=      5-min Rain = 0
KTIS 140005Z 18011KT 13/01 A3021 RMK A01 T01290014  RH  046%=      5-min Rain = 0
KTIS 140010Z 18011KT 13/02 A3022 RMK A01 T01270015  RH  047%=      5-min Rain = 0
KTIS 140015Z 18009KT 12/02 A3022 RMK A01 T01230015  RH  048%=      5-min Rain = 0
KTIS 140020Z 18009KT 12/02 A3022 RMK A01 T01190015  RH  049%=      5-min Rain = 0
KTIS 140025Z 18009KT 12/01 A3022 RMK A01 T01160014  RH  050%=      5-min Rain = 0
KTIS 140030Z 18008KT 11/01 A3022 RMK A01 T01110013  RH  051%=      5-min Rain = 0
KTIS 140035Z 18009KT 11/01 A3022 RMK A01 T01070012  RH  053%=      5-min Rain = 0
KTIS 140040Z 17009KT 11/01 A3022 RMK A01 T01050013  RH  053%=      5-min Rain = 0
KTIS 140045Z 18010KT 10/01 A3022 RMK A01 T01040013  RH  054%=      5-min Rain = 0
KTIS 140050Z 18010KT 10/01 A3022 RMK A01 T01010012  RH  055%=      5-min Rain = 0
KTIS 140055Z 18010KT 10/01 A3022 RMK A01 T00980012  RH  056%=      5-min Rain = 0
KTIS 140100Z 18010KT 10/01 A3022 RMK A01 T00960012  RH  056%=      5-min Rain = 0
KTIS 140105Z 18009KT 09/01 A3022 RMK A01 T00930010  RH  057%=      5-min Rain = 0
KTIS 140110Z 17008KT 09/01 A3022 RMK A01 T00900010  RH  058%=      5-min Rain = 0
KTIS 140115Z 18008KT 09/01 A3022 RMK A01 T00870009  RH  059%=      5-min Rain = 0
KTIS 140120Z 18009KT 08/01 A3022 RMK A01 T00840008  RH  059%=      5-min Rain = 0
KTIS 140125Z 18009KT 08/01 A3022 RMK A01 T00800006  RH  060%=      5-min Rain = 0
KTIS 140130Z 18010KT 08/01 A3022 RMK A01 T00780006  RH  061%=      5-min Rain = 0
KTIS 140135Z 18009KT 08/01 A3023 RMK A01 T00790007  RH  061%=      5-min Rain = 0
KTIS 140140Z 18009KT 08/01 A3022 RMK A01 T00800008  RH  061%=      5-min Rain = 0
KTIS 140145Z 18009KT 08/01 A3023 RMK A01 T00800008  RH  061%=      5-min Rain = 0
KTIS 140150Z 18009KT 08/01 A3023 RMK A01 T00790006  RH  061%=      5-min Rain = 0
KTIS 140155Z 19009KT 08/01 A3023 RMK A01 T00770006  RH  061%=      5-min Rain = 0
KTIS 140200Z 19009KT 08/01 A3023 RMK A01 T00760005  RH  062%=      5-min Rain = 0
KTIS 140205Z 19009KT 07/00 A3022 RMK A01 T00740004  RH  062%=      5-min Rain = 0
KTIS 140210Z 18010KT 07/00 A3023 RMK A01 T00710003  RH  063%=      5-min Rain = 0
KTIS 140215Z 19009KT 07/00 A3023 RMK A01 T00690002  RH  063%=      5-min Rain = 0
KTIS 140220Z 19009KT 07/00 A3023 RMK A01 T00680000  RH  063%=      5-min Rain = 0
KTIS 140225Z 20008KT 06/M00 A3023 RMK A01 T00621003  RH  064%=      5-min Rain = 0
KTIS 140230Z 20008KT 06/M00 A3023 RMK A01 T00591003  RH  065%=      5-min Rain = 0
KTIS 140235Z 19008KT 06/M01 A3023 RMK A01 T00571005  RH  065%=      5-min Rain = 0
KTIS 140240Z 19008KT 05/M01 A3023 RMK A01 T00541005  RH  067%=      5-min Rain = 0
KTIS 140245Z 20008KT 05/M00 A3023 RMK A01 T00541004  RH  067%=      5-min Rain = 0
KTIS 140250Z 20007KT 06/M00 A3024 RMK A01 T00581001  RH  066%=      5-min Rain = 0
KTIS 140255Z 20006KT 06/M00 A3023 RMK A01 T00611001  RH  065%=      5-min Rain = 0
KTIS 140300Z 17006KT 06/M00 A3024 RMK A01 T00571002  RH  066%=      5-min Rain = 0
KTIS 140305Z 18007KT 05/M00 A3023 RMK A01 T00531001  RH  069%=      5-min Rain = 0
KTIS 140310Z 18006KT 05/00 A3024 RMK A01 T00540000  RH  069%=      5-min Rain = 0
KTIS 140315Z 19005KT 05/00 A3024 RMK A01 T005400-0  RH  069%=      5-min Rain = 0
KTIS 140320Z 20005KT 05/00 A3024 RMK A01 T00540000  RH  069%=      5-min Rain = 0
KTIS 140325Z 20005KT 06/00 A3023 RMK A01 T00570003  RH  069%=      5-min Rain = 0
KTIS 140330Z 19005KT 06/00 A3023 RMK A01 T00570004  RH  069%=      5-min Rain = 0
KTIS 140335Z 19006KT 06/01 A3023 RMK A01 T00560005  RH  070%=      5-min Rain = 0
KTIS 140340Z 19007KT 06/01 A3023 RMK A01 T00570007  RH  071%=      5-min Rain = 0
KTIS 140345Z 19007KT 06/01 A3023 RMK A01 T00570008  RH  071%=      5-min Rain = 0
KTIS 140350Z 19008KT 06/01 A3024 RMK A01 T00580011  RH  072%=      5-min Rain = 0
KTIS 140355Z 19009KT 06/01 A3024 RMK A01 T00600014  RH  073%=      5-min Rain = 0
KTIS 140400Z 20009KT 06/01 A3023 RMK A01 T00620014  RH  072%=      5-min Rain = 0
KTIS 140405Z 19009KT 06/02 A3023 RMK A01 T00630016  RH  073%=      5-min Rain = 0
KTIS 140410Z 20008KT 06/01 A3024 RMK A01 T00630014  RH  072%=      5-min Rain = 0
KTIS 140415Z 20008KT 06/01 A3024 RMK A01 T00610012  RH  072%=      5-min Rain = 0
KTIS 140420Z 21007KT 06/01 A3024 RMK A01 T00590011  RH  072%=      5-min Rain = 0
KTIS 140425Z 21007KT 06/01 A3023 RMK A01 T00580010  RH  072%=      5-min Rain = 0
KTIS 140430Z 20009KT 06/01 A3023 RMK A01 T00580011  RH  072%=      5-min Rain = 0
KTIS 140435Z 20009KT 06/01 A3023 RMK A01 T00590011  RH  072%=      5-min Rain = 0
KTIS 140440Z 20008KT 06/01 A3023 RMK A01 T00590011  RH  072%=      5-min Rain = 0
KTIS 140445Z 20008KT 06/01 A3023 RMK A01 T00600012  RH  072%=      5-min Rain = 0
KTIS 140450Z 20009KT 06/01 A3022 RMK A01 T00610013  RH  072%=      5-min Rain = 0
KTIS 140455Z 20009KT 06/01 A3022 RMK A01 T00620014  RH  072%=      5-min Rain = 0
KTIS 140500Z 20009KT 06/01 A3022 RMK A01 T00630014  RH  072%=      5-min Rain = 0
KTIS 140505Z 20010KT 07/02 A3022 RMK A01 T00650015  RH  071%=      5-min Rain = 0
KTIS 140510Z 20010KT 07/02 A3022 RMK A01 T00660015  RH  071%=      5-min Rain = 0
KTIS 140515Z 20010KT 07/02 A3022 RMK A01 T00670015  RH  070%=      5-min Rain = 0
KTIS 140520Z 20011KT 07/02 A3022 RMK A01 T00670015  RH  070%=      5-min Rain = 0
KTIS 140525Z 20011KT 07/02 A3022 RMK A01 T00680015  RH  070%=      5-min Rain = 0
KTIS 140530Z 20010KT 07/02 A3022 RMK A01 T00680015  RH  070%=      5-min Rain = 0
KTIS 140535Z 20010KT 07/02 A3022 RMK A01 T00700017  RH  070%=      5-min Rain = 0
KTIS 140540Z 20008KT 07/02 A3022 RMK A01 T00710017  RH  069%=      5-min Rain = 0
KTIS 140545Z 21008KT 07/02 A3021 RMK A01 T00710017  RH  070%=      5-min Rain = 0
KTIS 140550Z 21009KT 07/02 A3022 RMK A01 T00720018  RH  069%=      5-min Rain = 0
KTIS 140555Z 21009KT 07/02 A3022 RMK A01 T00720018  RH  069%=      5-min Rain = 0
KTIS 140600Z 21009KT 07/02 A3022 RMK A01 T00720018  RH  069%=      5-min Rain = 0

Page generated in 0.1198 seconds.